createdAt,value
2023-09-24T00:00:59.281Z,102367.38
2023-09-24T00:03:27.190Z,102372.41
2023-09-24T00:05:54.490Z,102371.63
2023-09-24T00:08:21.542Z,102379.81
2023-09-24T00:10:51.804Z,102376.97
2023-09-24T00:13:18.537Z,102380.03
2023-09-24T00:15:45.264Z,102379.63
2023-09-24T00:18:11.916Z,102388.59
2023-09-24T00:20:38.886Z,102390.09
2023-09-24T00:23:05.407Z,102393.97
2023-09-24T00:25:31.986Z,102392.72
2023-09-24T00:27:58.597Z,102402.06
2023-09-24T00:30:25.251Z,102400.81
2023-09-24T00:32:54.939Z,102402.75
2023-09-24T00:35:23.683Z,102406.63
2023-09-24T00:37:50.432Z,102399.16
2023-09-24T00:40:16.970Z,102400.66
2023-09-24T00:42:43.572Z,102407.25
2023-09-24T00:45:12.841Z,102409.16
2023-09-24T00:47:45.624Z,102413.84
2023-09-24T00:50:13.297Z,102415.34
2023-09-24T00:52:43.525Z,102411.38
2023-09-24T00:55:14.317Z,102413.66
2023-09-24T00:57:42.166Z,102411.72
2023-09-24T01:00:12.888Z,102407.41
2023-09-24T01:02:40.734Z,102411.53
2023-09-24T01:05:11.524Z,102414.59
2023-09-24T01:07:40.755Z,102413.81
2023-09-24T01:10:12.271Z,102415.75
2023-09-24T01:12:40.944Z,102412.94
2023-09-24T01:15:14.267Z,102412.16
2023-09-24T01:17:40.951Z,102416.81
2023-09-24T01:20:13.294Z,102412.47
2023-09-24T01:22:41.586Z,102409.31
2023-09-24T01:25:08.597Z,102410.44
2023-09-24T01:27:36.646Z,102405.34
2023-09-24T01:30:07.288Z,102415.00
2023-09-24T01:32:34.140Z,102413.44
2023-09-24T01:35:07.355Z,102410.25
2023-09-24T01:37:35.172Z,102403.91
2023-09-24T01:40:08.351Z,102410.50
2023-09-24T01:42:35.595Z,102404.63
2023-09-24T01:45:02.179Z,102402.25
2023-09-24T01:47:29.772Z,102403.72
2023-09-24T01:49:58.145Z,102414.19
2023-09-24T01:52:24.679Z,102411.78
2023-09-24T01:54:51.889Z,102416.00
2023-09-24T01:57:19.999Z,102416.34
2023-09-24T01:59:46.578Z,102414.78
2023-09-24T02:02:14.409Z,102409.34
2023-09-24T02:04:40.963Z,102411.72
2023-09-24T02:07:09.344Z,102402.72
2023-09-24T02:09:36.762Z,102401.94
2023-09-24T02:12:03.409Z,102400.72
2023-09-24T02:14:30.526Z,102404.94
2023-09-24T02:16:57.109Z,102404.47
2023-09-24T02:19:26.063Z,102412.53
2023-09-24T02:21:52.591Z,102412.09
2023-09-24T02:24:19.783Z,102410.53
2023-09-24T02:26:46.337Z,102416.75
2023-09-24T02:29:12.909Z,102417.53
2023-09-24T02:31:39.609Z,102415.19
2023-09-24T02:34:07.278Z,102411.19
2023-09-24T02:36:33.773Z,102420.50
2023-09-24T02:39:00.444Z,102412.69
2023-09-24T02:41:26.979Z,102416.09
2023-09-24T02:43:55.928Z,102412.59
2023-09-24T02:46:22.491Z,102415.78
2023-09-24T02:48:49.088Z,102423.50
2023-09-24T02:51:15.663Z,102419.97
2023-09-24T02:53:43.349Z,102419.16
2023-09-24T02:56:09.980Z,102423.38
2023-09-24T02:58:36.781Z,102423.72
2023-09-24T03:01:05.621Z,102421.00
2023-09-24T03:03:32.267Z,102427.25
2023-09-24T03:05:59.033Z,102425.91
2023-09-24T03:08:27.769Z,102424.66
2023-09-24T03:10:55.191Z,102429.31
2023-09-24T03:13:22.141Z,102432.84
2023-09-24T03:15:49.380Z,102432.47
2023-09-24T03:18:16.008Z,102439.41
2023-09-24T03:20:44.999Z,102444.06
2023-09-24T03:23:11.799Z,102443.94
2023-09-24T03:25:38.834Z,102450.19
2023-09-24T03:28:05.698Z,102450.53
2023-09-24T03:30:32.399Z,102447.38
2023-09-24T03:33:00.433Z,102453.16
2023-09-24T03:35:28.561Z,102451.91
2023-09-24T03:37:56.289Z,102451.13
2023-09-24T03:40:25.916Z,102453.38
2023-09-24T03:42:52.859Z,102459.97
2023-09-24T03:45:21.407Z,102461.47
2023-09-24T03:47:48.464Z,102457.94
2023-09-24T03:50:18.293Z,102463.72
2023-09-24T03:52:46.573Z,102463.59
2023-09-24T03:55:13.653Z,102467.47
2023-09-24T03:57:40.643Z,102467.13
2023-09-24T04:00:19.394Z,102463.59
2023-09-24T04:02:53.231Z,102468.59
2023-09-24T04:05:25.151Z,102469.06
2023-09-24T04:07:54.665Z,102473.72
2023-09-24T04:10:24.190Z,102477.56
2023-09-24T04:12:52.147Z,102480.97
2023-09-24T04:15:24.366Z,102483.69
2023-09-24T04:17:51.606Z,102480.97
2023-09-24T04:20:20.873Z,102475.84
2023-09-24T04:22:48.379Z,102479.28
2023-09-24T04:25:16.683Z,102483.09
2023-09-24T04:27:43.777Z,102480.75
2023-09-24T04:30:12.840Z,102488.91
2023-09-24T04:32:39.925Z,102491.97
2023-09-24T04:35:07.107Z,102496.16
2023-09-24T04:37:33.737Z,102501.47
2023-09-24T04:40:00.382Z,102495.59
2023-09-24T04:42:26.952Z,102499.78
2023-09-24T04:44:53.651Z,102503.66
2023-09-24T04:47:20.260Z,102506.00
2023-09-24T04:49:48.068Z,102510.66
2023-09-24T04:52:14.610Z,102512.13
2023-09-24T04:54:41.177Z,102511.69
2023-09-24T04:57:09.122Z,102517.13
2023-09-24T04:59:35.876Z,102515.19
2023-09-24T05:02:02.428Z,102519.75
2023-09-24T05:04:29.125Z,102520.84
2023-09-24T05:06:55.888Z,102523.91
2023-09-24T05:09:26.518Z,102520.31
2023-09-24T05:11:55.170Z,102515.19
2023-09-24T05:14:22.001Z,102521.28
2023-09-24T05:16:52.306Z,102524.38
2023-09-24T05:19:19.088Z,102524.69
2023-09-24T05:21:46.036Z,102521.50
2023-09-24T05:24:12.806Z,102518.78
2023-09-24T05:26:39.460Z,102528.09
2023-09-24T05:29:06.082Z,102524.22
2023-09-24T05:31:32.578Z,102522.31
2023-09-24T05:33:59.532Z,102511.41
2023-09-24T05:36:26.160Z,102513.34
2023-09-24T05:38:52.742Z,102522.31
2023-09-24T05:41:19.309Z,102520.72
2023-09-24T05:43:46.923Z,102528.56
2023-09-24T05:46:13.591Z,102529.34
2023-09-24T05:48:40.257Z,102543.72
2023-09-24T05:51:08.384Z,102542.94
2023-09-24T05:53:35.152Z,102546.13
2023-09-24T05:56:03.285Z,102541.13
2023-09-24T05:58:29.881Z,102546.69
2023-09-24T06:00:57.300Z,102549.88
2023-09-24T06:03:24.146Z,102551.94
2023-09-24T06:05:50.930Z,102551.56
2023-09-24T06:08:17.546Z,102557.47
2023-09-24T06:10:46.031Z,102557.16
2023-09-24T06:13:19.614Z,102562.25
2023-09-24T06:15:46.331Z,102552.94
2023-09-24T06:18:13.870Z,102557.84
2023-09-24T06:20:42.362Z,102561.13
2023-09-24T06:23:10.010Z,102570.19
2023-09-24T06:25:36.665Z,102575.75
2023-09-24T06:28:05.616Z,102572.72
2023-09-24T06:30:32.253Z,102579.06
2023-09-24T06:32:59.009Z,102577.22
2023-09-24T06:35:25.722Z,102576.22
2023-09-24T06:37:52.308Z,102571.22
2023-09-24T06:40:19.135Z,102583.34
2023-09-24T06:42:47.018Z,102591.66
2023-09-24T06:45:13.818Z,102589.38
2023-09-24T06:47:40.541Z,102595.28
2023-09-24T06:50:07.776Z,102598.56
2023-09-24T06:52:34.332Z,102593.25
2023-09-24T06:55:01.169Z,102607.00
2023-09-24T06:57:27.642Z,102601.19
2023-09-24T06:59:55.395Z,102614.91
2023-09-24T07:02:22.061Z,102623.88
2023-09-24T07:04:50.055Z,102615.72
2023-09-24T07:07:16.724Z,102611.16
2023-09-24T07:09:43.626Z,102618.44
2023-09-24T07:12:11.349Z,102627.28
2023-09-24T07:14:37.952Z,102625.94
2023-09-24T07:17:04.537Z,102626.47
2023-09-24T07:19:31.136Z,102616.94
2023-09-24T07:21:58.506Z,102612.13
2023-09-24T07:24:25.900Z,102616.25
2023-09-24T07:26:52.775Z,102614.97
2023-09-24T07:29:19.413Z,102612.44
2023-09-24T07:31:46.095Z,102616.16
2023-09-24T07:34:12.729Z,102621.38
2023-09-24T07:36:52.637Z,102616.47
2023-09-24T07:39:24.605Z,102615.88
2023-09-24T07:41:51.724Z,102621.09
2023-09-24T07:44:19.812Z,102620.47
2023-09-24T07:46:46.983Z,102621.72
2023-09-24T07:49:13.879Z,102625.78
2023-09-24T07:51:40.485Z,102622.34
2023-09-24T07:54:08.140Z,102625.88
2023-09-24T07:56:35.634Z,102629.84
2023-09-24T07:59:03.764Z,102622.97
2023-09-24T08:01:30.845Z,102629.78
2023-09-24T08:03:57.532Z,102634.63
2023-09-24T08:06:24.801Z,102639.03
2023-09-24T08:09:00.043Z,102629.34
2023-09-24T08:11:33.715Z,102639.22
2023-09-24T08:14:00.373Z,102638.88
2023-09-24T08:16:27.743Z,102635.81
2023-09-24T08:18:54.740Z,102644.06
2023-09-24T08:21:21.493Z,102634.47
2023-09-24T08:23:48.953Z,102641.59
2023-09-24T08:26:15.923Z,102638.97
2023-09-24T08:28:43.218Z,102640.66
2023-09-24T08:31:12.079Z,102642.66
2023-09-24T08:33:38.775Z,102638.88
2023-09-24T08:36:10.253Z,102650.25
2023-09-24T08:38:36.869Z,102659.34
2023-09-24T08:41:11.321Z,102649.31
2023-09-24T08:43:40.580Z,102650.97
2023-09-24T08:46:09.663Z,102656.59
2023-09-24T08:48:38.018Z,102657.50
2023-09-24T08:51:05.357Z,102659.16
2023-09-24T08:53:33.596Z,102655.34
2023-09-24T08:56:01.620Z,102658.25
2023-09-24T08:58:29.145Z,102648.53
2023-09-24T09:00:55.714Z,102651.34
2023-09-24T09:03:22.856Z,102649.94
2023-09-24T09:05:50.838Z,102645.34
2023-09-24T09:08:17.428Z,102643.47
2023-09-24T09:10:44.074Z,102647.06
2023-09-24T09:13:15.004Z,102635.44
2023-09-24T09:15:43.542Z,102641.41
2023-09-24T09:18:25.876Z,102637.56
2023-09-24T09:21:00.064Z,102634.94
2023-09-24T09:23:34.822Z,102629.94
2023-09-24T09:26:02.859Z,102623.41
2023-09-24T09:28:33.670Z,102622.69
2023-09-24T09:31:15.151Z,102629.09
2023-09-24T09:33:44.672Z,102627.22
2023-09-24T09:36:31.304Z,102623.75
2023-09-24T09:38:59.788Z,102621.53
2023-09-24T09:41:27.575Z,102617.69
2023-09-24T09:43:54.961Z,102613.88
2023-09-24T09:46:24.524Z,102619.50
2023-09-24T09:48:56.704Z,102600.41
2023-09-24T09:51:25.346Z,102604.00
2023-09-24T09:53:54.923Z,102609.59
2023-09-24T09:56:24.007Z,102594.03
2023-09-24T09:58:52.623Z,102588.66
2023-09-24T10:01:22.394Z,102594.56
2023-09-24T10:03:52.507Z,102597.78
2023-09-24T10:06:20.101Z,102595.91
2023-09-24T10:08:49.174Z,102594.44
2023-09-24T10:11:32.319Z,102592.19
2023-09-24T10:14:00.473Z,102585.19
2023-09-24T10:16:27.000Z,102599.34
2023-09-24T10:18:57.519Z,102590.03
2023-09-24T10:21:31.657Z,102594.81
2023-09-24T10:24:00.266Z,102590.63
2023-09-24T10:26:46.567Z,102589.56
2023-09-24T10:29:13.134Z,102588.47
2023-09-24T10:32:08.394Z,102587.75
2023-09-24T10:34:56.516Z,102592.97
2023-09-24T10:37:31.982Z,102577.44
2023-09-24T10:40:06.595Z,102579.13
2023-09-24T10:42:35.446Z,102587.47
2023-09-24T10:45:08.430Z,102579.75
2023-09-24T10:47:43.998Z,102582.19
2023-09-24T10:50:15.834Z,102579.19
2023-09-24T10:52:49.678Z,102583.25
2023-09-24T10:55:17.740Z,102577.88
2023-09-24T10:57:47.771Z,102574.03
2023-09-24T11:00:17.775Z,102573.66
2023-09-24T11:02:45.566Z,102576.03
2023-09-24T11:05:13.387Z,102571.78
2023-09-24T11:07:39.977Z,102579.28
2023-09-24T11:10:07.036Z,102578.97
2023-09-24T11:12:33.593Z,102574.25
2023-09-24T11:15:15.288Z,102573.91
2023-09-24T11:17:45.993Z,102578.22
2023-09-24T11:20:13.599Z,102581.41
2023-09-24T11:22:40.676Z,102575.53
2023-09-24T11:25:11.552Z,102577.09
2023-09-24T11:27:57.490Z,102577.13
2023-09-24T11:30:28.653Z,102574.03
2023-09-24T11:32:55.362Z,102570.09
2023-09-24T11:35:26.324Z,102569.34
2023-09-24T11:38:00.210Z,102572.50
2023-09-24T11:40:35.708Z,102576.41
2023-09-24T11:43:09.612Z,102568.16
2023-09-24T11:45:43.969Z,102579.16
2023-09-24T11:48:14.469Z,102575.63
2023-09-24T11:50:44.780Z,102558.72
2023-09-24T11:53:11.778Z,102565.75
2023-09-24T11:55:39.710Z,102571.63
2023-09-24T11:58:07.298Z,102565.38
2023-09-24T12:00:36.650Z,102561.47
2023-09-24T12:03:05.121Z,102557.97
2023-09-24T12:05:34.362Z,102559.59
2023-09-24T12:08:02.886Z,102550.97
2023-09-24T12:10:29.555Z,102556.09
2023-09-24T12:13:02.147Z,102550.19
2023-09-24T12:15:31.071Z,102556.09
2023-09-24T12:17:58.623Z,102547.84
2023-09-24T12:20:25.401Z,102552.97
2023-09-24T12:22:51.941Z,102551.38
2023-09-24T12:25:18.798Z,102545.53
2023-09-24T12:27:45.643Z,102547.91
2023-09-24T12:30:13.812Z,102551.88
2023-09-24T12:32:41.138Z,102554.22
2023-09-24T12:35:09.975Z,102538.91
2023-09-24T12:37:37.223Z,102536.97
2023-09-24T12:40:08.552Z,102535.00
2023-09-24T12:42:36.656Z,102528.34
2023-09-24T12:45:04.943Z,102530.31
2023-09-24T12:47:34.224Z,102519.72
2023-09-24T12:50:04.785Z,102523.25
2023-09-24T12:52:36.622Z,102521.69
2023-09-24T12:55:05.024Z,102511.88
2023-09-24T12:57:31.907Z,102515.41
2023-09-24T12:59:58.913Z,102515.03
2023-09-24T13:02:26.486Z,102518.97
2023-09-24T13:04:55.412Z,102511.50
2023-09-24T13:07:22.012Z,102513.09
2023-09-24T13:09:48.624Z,102503.66
2023-09-24T13:12:16.488Z,102496.59
2023-09-24T13:14:43.423Z,102500.97
2023-09-24T13:17:10.594Z,102495.44
2023-09-24T13:19:37.747Z,102489.94
2023-09-24T13:22:04.320Z,102491.91
2023-09-24T13:24:30.858Z,102488.38
2023-09-24T13:26:57.404Z,102484.84
2023-09-24T13:29:24.965Z,102496.63
2023-09-24T13:31:53.166Z,102501.78
2023-09-24T13:34:19.626Z,102494.72
2023-09-24T13:36:46.206Z,102494.34
2023-09-24T13:39:14.277Z,102484.88
2023-09-24T13:41:40.880Z,102483.72
2023-09-24T13:44:09.426Z,102469.56
2023-09-24T13:46:36.145Z,102473.50
2023-09-24T13:49:05.410Z,102473.50
2023-09-24T13:51:36.549Z,102474.28
2023-09-24T13:54:04.208Z,102475.50
2023-09-24T13:56:30.937Z,102480.63
2023-09-24T13:58:58.512Z,102480.25
2023-09-24T14:01:25.460Z,102476.34
2023-09-24T14:03:54.553Z,102475.53
2023-09-24T14:06:21.748Z,102467.28
2023-09-24T14:09:06.919Z,102457.47
2023-09-24T14:11:52.003Z,102460.63
2023-09-24T14:14:18.782Z,102460.63
2023-09-24T14:16:48.754Z,102463.00
2023-09-24T14:19:16.178Z,102459.47
2023-09-24T14:21:42.983Z,102461.03
2023-09-24T14:24:10.028Z,102455.94
2023-09-24T14:26:36.628Z,102454.75
2023-09-24T14:29:03.469Z,102454.72
2023-09-24T14:31:30.193Z,102453.94
2023-09-24T14:33:56.955Z,102450.78
2023-09-24T14:36:23.871Z,102452.38
2023-09-24T14:38:51.054Z,102446.06
2023-09-24T14:41:19.091Z,102453.16
2023-09-24T14:43:47.084Z,102454.72
2023-09-24T14:46:13.930Z,102448.41
2023-09-24T14:48:40.657Z,102446.88
2023-09-24T14:56:50.265Z,102437.41
2023-09-24T14:59:17.870Z,102435.06
2023-09-24T15:01:53.568Z,102426.81
2023-09-24T15:04:29.617Z,102420.91
2023-09-24T15:07:01.276Z,102415.78
2023-09-24T15:09:51.732Z,102407.53
2023-09-24T15:12:33.338Z,102410.69
2023-09-24T15:15:03.538Z,102414.22
2023-09-24T15:17:30.234Z,102409.88
2023-09-24T15:19:57.342Z,102414.22
2023-09-24T15:22:27.969Z,102416.97
2023-09-24T15:25:02.874Z,102411.06
2023-09-24T15:31:21.548Z,102418.56
2023-09-24T15:36:38.453Z,102411.47
2023-09-24T15:39:05.256Z,102403.22
2023-09-24T15:41:33.304Z,102400.47
2023-09-24T15:44:31.864Z,102406.75
2023-09-24T15:49:43.452Z,102413.03
2023-09-24T15:52:10.182Z,102409.50
2023-09-24T15:57:37.569Z,102397.69
2023-09-24T16:00:10.636Z,102406.72
2023-09-24T16:02:40.825Z,102405.16
2023-09-24T16:05:10.209Z,102405.16
2023-09-24T16:07:37.527Z,102408.66
2023-09-24T16:10:05.396Z,102409.03
2023-09-24T16:12:34.695Z,102405.50
2023-09-24T16:15:01.771Z,102404.69
2023-09-24T16:17:28.731Z,102409.81
2023-09-24T16:19:55.342Z,102412.94
2023-09-24T16:22:22.041Z,102408.56
2023-09-24T16:24:51.952Z,102413.69
2023-09-24T16:27:18.995Z,102419.97
2023-09-24T16:29:45.715Z,102416.41
2023-09-24T16:32:12.451Z,102405.78
2023-09-24T16:34:40.249Z,102408.50
2023-09-24T16:37:06.881Z,102408.09
2023-09-24T16:39:34.423Z,102404.56
2023-09-24T16:42:01.144Z,102403.75
2023-09-24T16:44:29.723Z,102400.19
2023-09-24T16:46:56.668Z,102410.38
2023-09-24T16:49:23.367Z,102411.53
2023-09-24T16:51:51.114Z,102407.19
2023-09-24T16:54:23.300Z,102402.06
2023-09-24T16:56:49.997Z,102390.28
2023-09-24T16:59:17.670Z,102391.03
2023-09-24T17:01:44.869Z,102389.03
2023-09-24T17:04:12.066Z,102383.53
2023-09-24T17:06:39.862Z,102392.50
2023-09-24T17:09:06.539Z,102387.03
2023-09-24T17:11:34.330Z,102390.50
2023-09-24T17:14:00.962Z,102393.59
2023-09-24T17:16:27.625Z,102388.84
2023-09-24T17:18:54.349Z,102400.59
2023-09-24T17:21:20.989Z,102399.38
2023-09-24T17:23:47.998Z,102395.81
2023-09-24T17:26:17.243Z,102406.38
2023-09-24T17:28:44.279Z,102388.66
2023-09-24T17:31:13.414Z,102388.25
2023-09-24T17:33:40.995Z,102391.31
2023-09-24T17:36:10.838Z,102392.88
2023-09-24T17:38:38.247Z,102393.19
2023-09-24T17:41:04.876Z,102395.47
2023-09-24T17:43:31.628Z,102395.81
2023-09-24T17:46:02.816Z,102387.94
2023-09-24T17:48:29.611Z,102377.28
2023-09-24T17:51:04.667Z,102389.41
2023-09-24T17:53:31.308Z,102387.34
2023-09-24T17:55:59.791Z,102392.41
2023-09-24T17:58:27.245Z,102390.78
2023-09-24T18:01:05.649Z,102387.56
2023-09-24T18:03:34.055Z,102387.91
2023-09-24T18:06:00.934Z,102387.88
2023-09-24T18:08:29.295Z,102392.50
2023-09-24T18:10:58.908Z,102392.84
2023-09-24T18:13:26.092Z,102392.41
2023-09-24T18:15:55.224Z,102394.31
2023-09-24T18:18:25.015Z,102399.75
2023-09-24T18:20:54.396Z,102399.72
2023-09-24T18:23:21.205Z,102400.84
2023-09-24T18:25:48.517Z,102392.91
2023-09-24T18:28:15.920Z,102394.81
2023-09-24T18:30:42.766Z,102389.31
2023-09-24T18:33:10.244Z,102393.94
2023-09-24T18:35:38.941Z,102383.75
2023-09-24T18:38:07.423Z,102384.47
2023-09-24T18:40:39.843Z,102380.09
2023-09-24T18:43:07.008Z,102385.13
2023-09-24T18:45:34.894Z,102381.56
2023-09-24T18:48:01.755Z,102376.81
2023-09-24T18:50:30.772Z,102381.84
2023-09-24T18:52:57.458Z,102377.50
2023-09-24T18:55:24.494Z,102384.50
2023-09-24T18:57:51.153Z,102383.28
2023-09-24T19:00:17.918Z,102379.72
2023-09-24T19:02:45.085Z,102372.63
2023-09-24T19:05:14.300Z,102365.13
2023-09-24T19:07:40.873Z,102372.97
2023-09-24T19:10:14.476Z,102379.16
2023-09-24T19:12:44.480Z,102363.09
2023-09-24T19:15:12.222Z,102374.84
2023-09-24T19:17:39.981Z,102372.03
2023-09-24T19:20:07.942Z,102371.63
2023-09-24T19:22:35.403Z,102371.97
2023-09-24T19:25:02.538Z,102363.38
2023-09-24T19:27:29.290Z,102375.81
2023-09-24T19:29:57.784Z,102378.94
2023-09-24T19:32:27.013Z,102375.72
2023-09-24T19:34:54.130Z,102374.16
2023-09-24T19:37:20.898Z,102375.28
2023-09-24T19:39:47.639Z,102368.25
2023-09-24T19:42:14.350Z,102360.75
2023-09-24T19:44:41.180Z,102364.25
2023-09-24T19:47:08.105Z,102358.69
2023-09-24T19:49:34.893Z,102354.34
2023-09-24T19:52:01.595Z,102360.91
2023-09-24T19:54:30.975Z,102357.31
2023-09-24T19:56:59.663Z,102360.03
2023-09-24T19:59:26.447Z,102357.31
2023-09-24T20:01:53.335Z,102353.78
2023-09-24T20:04:19.980Z,102346.75
2023-09-24T20:06:47.606Z,102352.59
2023-09-24T20:09:15.919Z,102342.00
2023-09-24T20:11:44.788Z,102345.91
2023-09-24T20:14:11.665Z,102344.31
2023-09-24T20:16:39.329Z,102340.00
2023-09-24T20:19:08.262Z,102339.16
2023-09-24T20:21:35.573Z,102337.59
2023-09-24T20:24:08.396Z,102342.28
2023-09-24T20:26:39.965Z,102341.03
2023-09-24T20:29:09.714Z,102349.19
2023-09-24T20:31:37.488Z,102334.31
2023-09-24T20:34:05.638Z,102335.88
2023-09-24T20:36:33.723Z,102341.69
2023-09-24T20:39:07.260Z,102341.69
2023-09-24T20:41:36.522Z,102335.41
2023-09-24T20:44:03.978Z,102333.81
2023-09-24T20:46:38.023Z,102333.38
2023-09-24T20:49:05.401Z,102336.84
2023-09-24T20:51:32.407Z,102327.44
2023-09-24T20:53:59.134Z,102334.41
2023-09-24T20:56:25.979Z,102331.28
2023-09-24T20:58:53.278Z,102326.16
2023-09-24T21:01:20.006Z,102321.03
2023-09-24T21:03:47.189Z,102316.75
2023-09-24T21:06:14.549Z,102310.50
2023-09-24T21:08:41.188Z,102326.03
2023-09-24T21:11:07.779Z,102313.06
2023-09-24T21:13:35.819Z,102318.53
2023-09-24T21:16:03.131Z,102315.03
2023-09-24T21:18:29.949Z,102320.06
2023-09-24T21:20:56.537Z,102314.94
2023-09-24T21:23:24.598Z,102318.06
2023-09-24T21:25:51.157Z,102315.25
2023-09-24T21:28:17.700Z,102317.56
2023-09-24T21:30:44.375Z,102316.78
2023-09-24T21:33:12.584Z,102313.25
2023-09-24T21:35:39.218Z,102315.22
2023-09-24T21:38:05.866Z,102311.66
2023-09-24T21:40:32.395Z,102304.19
2023-09-24T21:42:58.910Z,102297.97
2023-09-24T21:45:25.611Z,102302.19
2023-09-24T21:47:52.196Z,102306.03
2023-09-24T21:50:18.776Z,102305.25
2023-09-24T21:52:45.273Z,102303.25
2023-09-24T21:55:11.949Z,102300.81
2023-09-24T21:57:38.489Z,102307.44
2023-09-24T22:00:14.022Z,102299.59
2023-09-24T22:02:42.183Z,102301.88
2023-09-24T22:05:09.157Z,102295.22
2023-09-24T22:07:35.794Z,102295.22
2023-09-24T22:10:02.798Z,102304.56
2023-09-24T22:12:29.463Z,102294.34
2023-09-24T22:14:56.231Z,102304.41
2023-09-24T22:17:23.056Z,102297.72
2023-09-24T22:19:49.542Z,102289.53
2023-09-24T22:22:16.087Z,102280.91
2023-09-24T22:24:43.777Z,102289.09
2023-09-24T22:27:10.530Z,102284.03
2023-09-24T22:29:37.118Z,102284.38
2023-09-24T22:32:04.003Z,102285.50
2023-09-24T22:34:30.638Z,102282.78
2023-09-24T22:36:57.146Z,102278.47
2023-09-24T22:39:23.713Z,102267.91
2023-09-24T22:41:51.250Z,102272.94
2023-09-24T22:44:17.871Z,102275.31
2023-09-24T22:46:44.557Z,102273.75
2023-09-24T22:49:11.105Z,102274.09
2023-09-24T22:51:37.778Z,102261.59
2023-09-24T22:54:04.452Z,102261.25
2023-09-24T22:56:31.034Z,102259.66
2023-09-24T22:58:58.744Z,102252.25
2023-09-24T23:01:25.359Z,102255.00
2023-09-24T23:03:52.369Z,102257.72
2023-09-24T23:06:19.065Z,102251.84
2023-09-24T23:08:45.622Z,102247.94
2023-09-24T23:11:12.158Z,102256.94
2023-09-24T23:13:38.747Z,102254.22
2023-09-24T23:16:05.377Z,102244.81
2023-09-24T23:18:32.251Z,102239.34
2023-09-24T23:20:59.571Z,102241.69
2023-09-24T23:23:26.253Z,102248.31
2023-09-24T23:25:53.739Z,102246.38
2023-09-24T23:28:20.388Z,102247.53
2023-09-24T23:30:47.087Z,102244.81
2023-09-24T23:33:14.270Z,102245.59
2023-09-24T23:35:41.444Z,102246.38
2023-09-24T23:38:08.703Z,102251.41
2023-09-24T23:40:35.622Z,102243.22
2023-09-24T23:43:02.946Z,102251.41
2023-09-24T23:45:36.729Z,102264.25
2023-09-24T23:48:08.102Z,102251.75
2023-09-24T23:50:36.627Z,102247.88
2023-09-24T23:53:04.404Z,102249.03
2023-09-24T23:55:31.924Z,102251.75
2023-09-24T23:58:06.665Z,102249.41
